Time;durP1;ratioP1;P1;durP2;ratioP2;P2;SDS_P1;SDS_P2;PMS_P1;PMS_P2;Temp;Humidity;BMP_temperature;BMP_pressure;BME280_temperature;BME280_humidity;BME280_pressure;Samples;Min_cycle;Max_cycle;Signal;HPM_P1;HPM_P2
2022/12/28 00:01:40;;;;;;;9.80;3.40;;;22.90;53.00;;;;;;212082;1311;25378;-59
2022/12/28 00:06:46;;;;;;;8.40;4.00;;;22.90;52.70;;;;;;212031;1310;24317;-60
2022/12/28 00:11:50;;;;;;;7.80;3.70;;;23.00;52.40;;;;;;212001;1311;177144;-59
2022/12/28 00:16:54;;;;;;;8.40;3.70;;;23.10;52.60;;;;;;212022;1289;25517;-59
2022/12/28 00:21:58;;;;;;;8.50;3.30;;;23.00;52.30;;;;;;211884;1309;22535;-59
2022/12/28 00:27:02;;;;;;;8.50;3.90;;;23.00;52.20;;;;;;212035;1312;24148;-58
2022/12/28 00:32:07;;;;;;;8.30;4.10;;;23.10;52.20;;;;;;211892;1315;23883;-58
2022/12/28 00:37:11;;;;;;;8.30;3.60;;;23.10;52.00;;;;;;211960;1318;22505;-58
2022/12/28 00:42:15;;;;;;;7.60;3.50;;;23.20;51.70;;;;;;211980;1306;22538;-60
2022/12/28 00:47:20;;;;;;;8.90;3.40;;;23.30;51.70;;;;;;212065;1305;24709;-58
2022/12/28 00:52:24;;;;;;;6.80;3.40;;;23.20;51.70;;;;;;211962;1306;22490;-59
2022/12/28 00:57:30;;;;;;;6.90;3.40;;;23.10;51.80;;;;;;211913;1313;25675;-61
2022/12/28 01:02:34;;;;;;;8.30;4.20;;;23.00;51.90;;;;;;211989;1312;22615;-59
2022/12/28 01:07:39;;;;;;;7.20;3.10;;;22.90;52.20;;;;;;212092;1305;24237;-58
2022/12/28 01:12:43;;;;;;;5.40;2.80;;;22.80;52.40;;;;;;211901;1317;22492;-59
2022/12/28 01:17:49;;;;;;;7.10;3.30;;;22.70;52.50;;;;;;211921;1303;22673;-58
2022/12/28 01:22:54;;;;;;;6.40;3.00;;;22.60;53.00;;;;;;212594;1308;24224;-58
2022/12/28 01:27:58;;;;;;;6.00;3.20;;;22.50;52.90;;;;;;212079;1300;24919;-58
2022/12/28 01:33:02;;;;;;;6.20;2.80;;;22.40;53.60;;;;;;212093;1315;22528;-57
2022/12/28 01:38:06;;;;;;;7.50;3.40;;;22.30;53.20;;;;;;212101;1316;22798;-59
2022/12/28 01:43:15;;;;;;;6.50;3.10;;;22.30;53.30;;;;;;212095;1316;27630;-58
2022/12/28 01:48:34;;;;;;;;;;;22.10;53.50;;;;;;211876;1317;23887;-57
2022/12/28 01:53:38;;;;;;;6.40;2.90;;;22.10;53.60;;;;;;212212;1295;24423;-57
2022/12/28 01:58:42;;;;;;;5.50;2.80;;;22.00;53.80;;;;;;212220;1302;22528;-58
2022/12/28 02:03:47;;;;;;;7.00;3.50;;;22.00;54.00;;;;;;212014;1299;24427;-58
2022/12/28 02:09:20;;;;;;;4.90;2.50;;;21.90;54.00;;;;;;212644;1316;22481;-58
2022/12/28 02:14:24;;;;;;;6.80;2.70;;;21.80;54.20;;;;;;211683;1315;22494;-58
2022/12/28 02:19:48;;;;;;;7.00;3.00;;;21.80;54.70;;;;;;212040;1316;24015;-59
2022/12/28 02:25:30;;;;;;;6.50;3.00;;;21.80;54.30;;;;;;212078;1315;22535;-59
2022/12/28 02:30:42;;;;;;;4.70;2.60;;;21.70;54.30;;;;;;211382;1305;22545;-58
2022/12/28 02:35:50;;;;;;;5.60;2.70;;;21.70;55.30;;;;;;212052;1309;24294;-58
2022/12/28 02:41:04;;;;;;;5.20;2.90;;;21.60;54.70;;;;;;212271;1310;22588;-58
2022/12/28 02:51:45;;;;;;;5.90;2.60;;;21.50;54.90;;;;;;212124;1317;22505;-59
2022/12/28 02:57:00;;;;;;;6.20;2.40;;;21.40;54.90;;;;;;212012;1309;22478;-60
2022/12/28 03:02:26;;;;;;;3.90;1.90;;;21.40;54.80;;;;;;212206;1313;23868;-60
2022/12/28 03:13:43;;;;;;;4.00;2.10;;;22.00;54.10;;;;;;212131;1316;22490;-59
2022/12/28 03:35:27;;;;;;;4.40;2.60;;;22.80;52.00;;;;;;212001;1317;22498;-59
2022/12/28 03:40:43;;;;;;;4.50;2.10;;;22.80;51.80;;;;;;212167;1307;25460;-57
2022/12/28 03:46:32;;;;;;;4.40;2.20;;;22.90;51.80;;;;;;211976;1305;23200;-57
2022/12/28 03:51:36;;;;;;;4.20;2.20;;;22.90;51.60;;;;;;214317;1318;24362;-58
2022/12/28 03:56:48;;;;;;;4.40;2.20;;;22.90;51.40;;;;;;211294;1312;22724;-58
2022/12/28 04:01:53;;;;;;;3.90;2.30;;;23.00;51.30;;;;;;213638;1323;22514;-58
2022/12/28 04:06:57;;;;;;;3.70;1.90;;;23.00;51.70;;;;;;212056;1309;24306;-58
2022/12/28 04:12:02;;;;;;;4.90;2.10;;;23.00;51.20;;;;;;210784;1309;24305;-56
2022/12/28 04:17:32;;;;;;;3.60;2.10;;;23.10;51.10;;;;;;210861;1316;23776;-58
2022/12/28 04:22:36;;;;;;;4.20;2.00;;;23.10;51.00;;;;;;210786;1316;22508;-59
2022/12/28 04:27:40;;;;;;;3.40;1.90;;;23.20;50.90;;;;;;211952;1300;22521;-55
2022/12/28 04:32:55;;;;;;;4.00;1.90;;;23.20;51.30;;;;;;211640;1302;22855;-58
2022/12/28 04:37:58;;;;;;;3.30;1.90;;;23.20;50.90;;;;;;211890;1308;22555;-59
2022/12/28 04:43:02;;;;;;;4.20;2.20;;;23.20;51.20;;;;;;212027;1303;24448;-60
2022/12/28 04:48:06;;;;;;;5.50;2.40;;;23.10;52.00;;;;;;211957;1309;22702;-60
2022/12/28 04:53:10;;;;;;;9.50;2.20;;;23.00;53.10;;;;;;211833;1306;22488;-58
2022/12/28 04:58:15;;;;;;;5.10;2.30;;;23.00;53.30;;;;;;211965;1303;22616;-59
2022/12/28 05:03:19;;;;;;;8.50;2.20;;;23.00;54.20;;;;;;212068;1297;22539;-60
2022/12/28 05:08:23;;;;;;;5.10;1.70;;;22.90;54.20;;;;;;211942;1300;22712;-59
2022/12/28 05:13:28;;;;;;;3.70;1.90;;;22.80;53.70;;;;;;211956;1295;22860;-57
2022/12/28 05:18:32;;;;;;;6.80;2.30;;;22.70;54.30;;;;;;212000;1303;22604;-57
2022/12/28 05:23:37;;;;;;;6.40;2.50;;;22.60;53.90;;;;;;212166;1310;23952;-60
2022/12/28 05:28:41;;;;;;;7.10;2.40;;;22.50;53.80;;;;;;212003;1317;22510;-57
2022/12/28 05:33:46;;;;;;;5.20;2.10;;;22.40;53.80;;;;;;212034;1309;24280;-60
2022/12/28 05:38:51;;;;;;;3.60;2.00;;;22.30;53.90;;;;;;212113;1296;23014;-59
2022/12/28 05:43:57;;;;;;;3.90;1.90;;;22.20;54.30;;;;;;212362;1303;22506;-59
2022/12/28 05:49:01;;;;;;;6.70;2.20;;;22.20;54.50;;;;;;212041;1296;22500;-59
2022/12/28 05:54:05;;;;;;;5.00;2.30;;;22.10;53.90;;;;;;212317;1301;24253;-59
2022/12/28 05:59:12;;;;;;;5.50;2.00;;;22.00;53.90;;;;;;212165;1307;22487;-59
2022/12/28 06:04:18;;;;;;;3.50;2.00;;;21.90;54.00;;;;;;212020;1297;22498;-60
2022/12/28 06:09:22;;;;;;;5.30;2.30;;;21.90;54.40;;;;;;212068;1296;24281;-60
2022/12/28 06:14:26;;;;;;;5.70;2.10;;;21.80;54.00;;;;;;212073;1303;22487;-59
2022/12/28 06:19:30;;;;;;;3.20;1.80;;;21.80;54.10;;;;;;212103;1302;23551;-60
2022/12/28 06:24:34;;;;;;;3.00;1.80;;;21.70;54.10;;;;;;212230;1302;22548;-59
2022/12/28 06:29:38;;;;;;;4.40;2.30;;;21.70;54.20;;;;;;211992;1315;22487;-60
2022/12/28 06:34:42;;;;;;;4.40;1.90;;;21.60;54.10;;;;;;212186;1311;22542;-60
2022/12/28 06:39:46;;;;;;;4.30;2.00;;;21.60;54.20;;;;;;212181;1312;23897;-60
2022/12/28 06:44:50;;;;;;;5.20;2.10;;;21.50;54.10;;;;;;212124;1299;24250;-60
2022/12/28 06:49:55;;;;;;;5.30;2.00;;;21.50;54.10;;;;;;212153;1306;22491;-60
2022/12/28 06:54:59;;;;;;;3.70;2.00;;;21.40;54.20;;;;;;212188;1306;22584;-59
2022/12/28 07:00:04;;;;;;;4.30;1.90;;;21.40;54.30;;;;;;211916;1317;22607;-60
2022/12/28 07:05:08;;;;;;;4.40;2.10;;;21.40;54.20;;;;;;212231;1303;22637;-59
2022/12/28 07:10:13;;;;;;;2.60;1.70;;;21.50;54.40;;;;;;212172;1310;22883;-60
2022/12/28 07:15:17;;;;;;;3.90;1.80;;;21.70;53.40;;;;;;212129;1299;22655;-59
2022/12/28 07:20:21;;;;;;;4.60;1.80;;;22.00;52.70;;;;;;212176;1315;22483;-60
2022/12/28 07:25:25;;;;;;;4.70;2.10;;;22.20;52.30;;;;;;212265;1306;22491;-61
2022/12/28 07:30:30;;;;;;;2.80;1.80;;;22.30;51.90;;;;;;212064;1310;24025;-61
2022/12/28 07:35:34;;;;;;;4.40;1.90;;;22.50;51.70;;;;;;212107;1309;22482;-61
2022/12/28 07:40:38;;;;;;;3.10;1.50;;;22.60;51.30;;;;;;212284;1299;25260;-61
2022/12/28 07:45:42;;;;;;;3.30;1.90;;;22.70;51.20;;;;;;212070;1295;22541;-61
2022/12/28 07:50:46;;;;;;;3.00;1.80;;;22.90;50.90;;;;;;212174;1315;23630;-59
2022/12/28 07:55:57;;;;;;;4.50;2.50;;;22.90;50.70;;;;;;212102;1306;22623;-60
2022/12/28 08:01:07;;;;;;;3.20;2.00;;;22.90;51.00;;;;;;212055;1310;22665;-59
2022/12/28 08:06:12;;;;;;;2.80;1.70;;;22.90;50.80;;;;;;212021;1297;22689;-61
2022/12/28 08:11:20;;;;;;;4.00;2.30;;;23.00;50.50;;;;;;211945;1299;22901;-60
2022/12/28 08:16:26;;;;;;;2.90;1.90;;;22.90;50.40;;;;;;212107;1305;24344;-60
2022/12/28 08:21:36;;;;;;;3.60;1.90;;;23.00;50.40;;;;;;212152;1297;25562;-61
2022/12/28 08:26:40;;;;;;;3.80;2.40;;;23.10;50.30;;;;;;212029;1296;22510;-61
2022/12/28 08:31:45;;;;;;;3.50;1.80;;;23.00;50.70;;;;;;212235;1310;26628;-62
2022/12/28 08:36:49;;;;;;;3.50;1.90;;;23.10;50.20;;;;;;212157;1297;22535;-60
2022/12/28 08:41:54;;;;;;;2.90;1.80;;;23.10;49.80;;;;;;212183;1312;22538;-61
2022/12/28 08:46:58;;;;;;;4.00;2.20;;;23.10;50.00;;;;;;212130;1297;24255;-60
2022/12/28 08:52:03;;;;;;;3.40;1.90;;;23.10;50.10;;;;;;211972;1296;22482;-59
2022/12/28 08:57:07;;;;;;;3.50;2.10;;;23.00;50.10;;;;;;212054;1310;22963;-60
2022/12/28 09:02:12;;;;;;;3.40;2.10;;;23.00;50.40;;;;;;212160;1296;22501;-59
2022/12/28 09:07:17;;;;;;;3.10;1.80;;;22.90;50.40;;;;;;212155;1311;25551;-58
2022/12/28 09:12:21;;;;;;;3.60;2.00;;;22.80;50.60;;;;;;211752;1305;24326;-61
2022/12/28 09:17:26;;;;;;;5.90;1.70;;;22.70;50.60;;;;;;212211;1296;24318;-60
2022/12/28 09:22:30;;;;;;;3.60;2.20;;;22.60;50.80;;;;;;212141;1297;22844;-59
2022/12/28 09:27:36;;;;;;;4.10;2.40;;;22.50;51.40;;;;;;212237;1307;26609;-60
2022/12/28 09:32:40;;;;;;;3.50;2.10;;;22.40;51.30;;;;;;212268;1303;23879;-61
2022/12/28 09:37:44;;;;;;;4.40;2.30;;;22.40;51.50;;;;;;212305;1312;22584;-62
2022/12/28 09:42:49;;;;;;;3.40;1.90;;;22.30;51.70;;;;;;212139;1312;24176;-60
2022/12/28 09:48:01;;;;;;;3.60;2.00;;;22.20;51.60;;;;;;212186;1309;23897;-62
2022/12/28 09:53:25;;;;;;;4.00;2.40;;;22.10;51.80;;;;;;212083;1302;24256;-60
2022/12/28 09:58:32;;;;;;;3.70;2.20;;;22.10;51.80;;;;;;212183;1311;24773;-60
2022/12/28 10:03:41;;;;;;;4.10;2.20;;;22.00;52.20;;;;;;212343;1310;24406;-62
2022/12/28 10:09:00;;;;;;;3.30;2.20;;;22.00;51.80;;;;;;212325;1303;22607;-60
2022/12/28 10:14:18;;;;;;;3.60;2.20;;;21.90;52.10;;;;;;212061;1315;22635;-60
2022/12/28 10:19:25;;;;;;;3.40;2.00;;;21.90;51.90;;;;;;212052;1296;24250;-60
2022/12/28 10:24:30;;;;;;;3.70;2.40;;;21.80;51.90;;;;;;212096;1315;25358;-57
2022/12/28 10:29:35;;;;;;;3.70;2.20;;;21.80;51.80;;;;;;212187;1302;23905;-60
2022/12/28 10:35:03;;;;;;;3.40;2.10;;;21.80;51.90;;;;;;212075;1297;24261;-59
2022/12/28 10:40:28;;;;;;;3.40;2.10;;;21.70;51.90;;;;;;210567;1305;24413;-59
2022/12/28 10:45:46;;;;;;;3.10;2.10;;;21.70;52.00;;;;;;210585;1303;25285;-60
2022/12/28 10:51:15;;;;;;;3.70;2.10;;;21.60;52.10;;;;;;210384;1302;22539;-59
2022/12/28 10:56:31;;;;;;;3.60;2.20;;;21.60;52.40;;;;;;210428;1323;25466;-58
2022/12/28 11:01:36;;;;;;;3.40;1.90;;;21.60;52.00;;;;;;210251;1308;22614;-59
2022/12/28 11:06:55;;;;;;;3.50;2.30;;;21.50;52.40;;;;;;210628;1308;25799;-60
2022/12/28 11:12:16;;;;;;;3.20;2.10;;;21.50;52.10;;;;;;210552;1308;22994;-61
2022/12/28 11:17:24;;;;;;;5.00;2.10;;;21.50;52.10;;;;;;211638;1302;22496;-60
2022/12/28 11:22:29;;;;;;;3.40;2.00;;;21.70;52.60;;;;;;212235;1316;23120;-59
2022/12/28 11:27:34;;;;;;;3.40;2.30;;;22.00;51.30;;;;;;212072;1306;24312;-60
2022/12/28 11:32:49;;;;;;;3.80;2.10;;;22.30;50.80;;;;;;212055;1299;22489;-61
2022/12/28 11:37:56;;;;;;;4.30;2.00;;;22.50;50.60;;;;;;212051;1312;22558;-60
2022/12/28 11:43:00;;;;;;;3.10;2.10;;;22.60;49.80;;;;;;212001;1296;22620;-60
2022/12/28 11:48:56;;;;;;;3.30;1.90;;;22.90;49.40;;;;;;212010;1314;22578;-61
2022/12/28 11:54:04;;;;;;;3.60;2.00;;;23.00;49.10;;;;;;210474;1302;23908;-59
2022/12/28 11:59:31;;;;;;;3.90;2.00;;;23.00;49.00;;;;;;210516;1315;22548;-60
2022/12/28 12:04:39;;;;;;;4.10;2.20;;;23.00;49.00;;;;;;210545;1317;22614;-61
2022/12/28 12:09:45;;;;;;;3.00;1.90;;;23.00;49.40;;;;;;210437;1324;22536;-59
2022/12/28 12:14:56;;;;;;;2.80;1.80;;;23.10;48.80;;;;;;210307;1318;247451;-60
2022/12/28 12:20:25;;;;;;;2.70;1.60;;;23.20;48.70;;;;;;210416;1302;25554;-59
2022/12/28 12:25:45;;;;;;;2.70;1.80;;;23.30;48.80;;;;;;210525;1319;22516;-60
2022/12/28 12:30:49;;;;;;;3.10;1.90;;;23.30;48.90;;;;;;211844;1308;22501;-60
2022/12/28 12:36:23;;;;;;;3.00;2.00;;;23.40;48.90;;;;;;212030;1318;24213;-59
2022/12/28 12:41:36;;;;;;;3.30;2.00;;;23.40;48.50;;;;;;212060;1303;22707;-59
2022/12/28 12:46:53;;;;;;;3.10;1.60;;;23.30;48.60;;;;;;212149;1310;25431;-57
2022/12/28 12:52:31;;;;;;;3.40;1.70;;;23.20;48.70;;;;;;211976;1316;22488;-59
2022/12/28 12:58:04;;;;;;;2.80;1.90;;;23.10;49.00;;;;;;212127;1292;24215;-60
2022/12/28 13:03:28;;;;;;;2.60;1.70;;;23.00;49.10;;;;;;211802;1317;26598;-61
2022/12/28 13:08:36;;;;;;;;;;;22.90;49.90;;;;;;212004;1304;22486;-58
2022/12/28 13:13:45;;;;;;;3.10;1.60;;;22.80;49.60;;;;;;212027;1315;25515;-60
2022/12/28 13:19:15;;;;;;;3.10;1.90;;;22.70;49.60;;;;;;212175;1303;24375;-59
2022/12/28 13:24:28;;;;;;;3.10;1.70;;;22.60;49.80;;;;;;212118;1288;24279;-60
2022/12/28 13:29:37;;;;;;;2.00;1.30;;;22.50;49.90;;;;;;212127;1310;22690;-60
2022/12/28 13:34:48;;;;;;;3.00;1.60;;;22.50;50.60;;;;;;212079;1301;22748;-59
2022/12/28 13:40:14;;;;;;;2.80;1.60;;;22.30;50.10;;;;;;212031;1312;24307;-61
2022/12/28 13:45:19;;;;;;;2.60;1.70;;;22.30;50.40;;;;;;212111;1312;23038;-60
2022/12/28 13:50:28;;;;;;;3.30;1.90;;;22.20;50.60;;;;;;212122;1299;23838;-60
2022/12/28 13:55:53;;;;;;;2.70;1.80;;;22.10;50.50;;;;;;212062;1312;22485;-59
2022/12/28 14:00:59;;;;;;;2.90;1.60;;;22.10;50.60;;;;;;212101;1311;26148;-60
2022/12/28 14:06:05;;;;;;;3.20;1.80;;;22.00;50.80;;;;;;212126;1300;22487;-61
2022/12/28 14:11:10;;;;;;;3.40;1.80;;;22.00;50.80;;;;;;212107;1312;24558;-60
2022/12/28 14:16:15;;;;;;;3.10;1.60;;;21.90;50.60;;;;;;212203;1303;22491;-60
2022/12/28 14:21:43;;;;;;;3.30;2.10;;;21.90;50.70;;;;;;212284;1296;24371;-60
2022/12/28 14:26:51;;;;;;;3.00;1.60;;;21.80;50.60;;;;;;212186;1301;22604;-59
2022/12/28 14:32:06;;;;;;;2.70;1.50;;;21.80;51.00;;;;;;212267;1305;24047;-60
2022/12/28 14:37:23;;;;;;;2.40;1.50;;;21.70;50.80;;;;;;212041;1296;22716;-59
2022/12/28 14:42:29;;;;;;;3.10;1.60;;;21.70;51.20;;;;;;212146;1310;22565;-59
2022/12/28 14:47:34;;;;;;;2.90;1.60;;;21.70;51.20;;;;;;212081;1289;23630;-60
2022/12/28 14:52:47;;;;;;;2.30;1.50;;;21.60;50.90;;;;;;212104;1310;25376;-60
2022/12/28 14:57:55;;;;;;;3.50;1.50;;;21.60;50.90;;;;;;212174;1293;24253;-58
2022/12/28 15:03:19;;;;;;;3.30;1.70;;;21.50;51.00;;;;;;212175;1293;22715;-60
2022/12/28 15:08:28;;;;;;;2.70;1.60;;;21.50;51.00;;;;;;212194;1292;23219;-59
2022/12/28 15:13:32;;;;;;;2.50;1.50;;;21.50;51.10;;;;;;211978;1304;22490;-59
2022/12/28 15:18:43;;;;;;;3.80;1.80;;;21.70;51.10;;;;;;212122;1312;22548;-61
2022/12/28 15:23:49;;;;;;;;;;;22.00;50.40;;;;;;212145;1299;23075;-60
2022/12/28 15:28:53;;;;;;;2.70;1.40;;;22.20;49.90;;;;;;212159;1306;24231;-62
2022/12/28 15:33:57;;;;;;;5.60;1.90;;;22.40;49.60;;;;;;212222;1308;22602;-61
2022/12/28 15:39:02;;;;;;;5.80;2.00;;;22.60;49.30;;;;;;212105;1309;24272;-59
2022/12/28 15:44:07;;;;;;;4.90;1.90;;;22.70;49.00;;;;;;212188;1310;24281;-59
2022/12/28 15:49:15;;;;;;;7.20;1.90;;;22.80;48.70;;;;;;211938;1313;24227;-60
2022/12/28 15:54:19;;;;;;;2.70;1.60;;;22.90;48.50;;;;;;212104;1296;22494;-60
2022/12/28 15:59:23;;;;;;;4.50;1.50;;;23.00;48.90;;;;;;212117;1308;22749;-59
2022/12/28 16:04:27;;;;;;;6.30;2.10;;;22.90;48.50;;;;;;212204;1310;25389;-60
2022/12/28 16:09:31;;;;;;;4.30;1.90;;;22.90;48.50;;;;;;212102;1306;22575;-59
2022/12/28 16:14:36;;;;;;;4.50;2.40;;;23.00;48.50;;;;;;212217;1309;24371;-59
2022/12/28 16:19:40;;;;;;;4.80;1.80;;;23.10;48.50;;;;;;212256;1302;26802;-59
2022/12/28 16:24:44;;;;;;;3.40;1.70;;;23.10;48.30;;;;;;212011;1297;22489;-57
2022/12/28 16:29:48;;;;;;;6.80;2.40;;;23.20;48.20;;;;;;212186;1306;22497;-59
2022/12/28 16:35:01;;;;;;;3.60;1.80;;;23.30;48.60;;;;;;211986;1295;24268;-58
2022/12/28 16:40:06;;;;;;;4.30;2.10;;;23.30;48.20;;;;;;212193;1317;22516;-61
2022/12/28 16:45:10;;;;;;;4.20;1.80;;;23.30;48.10;;;;;;212156;1300;22499;-59
2022/12/28 16:50:15;;;;;;;5.10;2.00;;;23.30;48.60;;;;;;212164;1309;22476;-61
2022/12/28 16:55:19;;;;;;;4.70;1.90;;;23.20;48.30;;;;;;212195;1300;24252;-61
2022/12/28 17:00:24;;;;;;;6.20;2.10;;;23.20;48.50;;;;;;212160;1311;22547;-60
2022/12/28 17:05:32;;;;;;;5.50;2.00;;;23.10;48.60;;;;;;212331;1302;22539;-58
2022/12/28 17:10:40;;;;;;;7.40;2.50;;;23.00;48.80;;;;;;212216;1309;25410;-59
2022/12/28 17:15:44;;;;;;;6.60;2.40;;;22.90;49.00;;;;;;212225;1311;25633;-59
2022/12/28 17:20:50;;;;;;;6.40;2.40;;;22.80;49.20;;;;;;212282;1302;24303;-60
2022/12/28 17:25:54;;;;;;;4.40;2.20;;;22.70;49.30;;;;;;212224;1311;23119;-60
2022/12/28 17:31:10;;;;;;;6.90;2.30;;;22.60;49.50;;;;;;212070;1296;22653;-60
2022/12/28 17:36:15;;;;;;;4.50;2.10;;;22.50;49.60;;;;;;212078;1296;25397;-58
2022/12/28 17:41:24;;;;;;;3.10;1.80;;;22.50;49.70;;;;;;212095;1309;24470;-59
2022/12/28 17:46:31;;;;;;;6.20;2.10;;;22.40;49.90;;;;;;212126;1307;22472;-58
2022/12/28 17:51:36;;;;;;;5.90;2.50;;;22.30;50.00;;;;;;212202;1299;22729;-59
2022/12/28 17:56:41;;;;;;;4.80;2.20;;;22.20;50.10;;;;;;212216;1312;22494;-59
2022/12/28 18:01:45;;;;;;;4.30;2.10;;;22.20;50.30;;;;;;212052;1311;25314;-59
2022/12/28 18:06:50;;;;;;;5.70;2.30;;;22.10;50.40;;;;;;212191;1303;24298;-59
2022/12/28 18:11:55;;;;;;;4.10;2.10;;;22.00;50.50;;;;;;212216;1290;22549;-59
2022/12/28 18:16:59;;;;;;;4.50;2.50;;;22.00;50.90;;;;;;212073;1303;22539;-59
2022/12/28 18:22:03;;;;;;;3.70;2.10;;;22.00;51.00;;;;;;211980;1310;22564;-60
2022/12/28 18:27:08;;;;;;;7.60;2.90;;;21.90;51.00;;;;;;212228;1303;24749;-58
2022/12/28 18:32:12;;;;;;;5.80;2.60;;;21.80;50.80;;;;;;212007;1305;22492;-60
2022/12/28 18:37:16;;;;;;;4.90;2.40;;;21.80;50.70;;;;;;212342;1309;22606;-62
2022/12/28 18:42:20;;;;;;;4.30;2.60;;;21.80;50.70;;;;;;212210;1303;23758;-60
2022/12/28 18:47:25;;;;;;;7.80;2.60;;;21.70;50.60;;;;;;212235;1298;23733;-60
2022/12/28 18:52:34;;;;;;;6.10;2.70;;;21.70;50.70;;;;;;212093;1301;24329;-61
2022/12/28 18:57:39;;;;;;;6.60;2.90;;;21.70;50.80;;;;;;212001;1310;24388;-58
2022/12/28 19:02:49;;;;;;;4.90;2.50;;;21.70;50.80;;;;;;212141;1307;25658;-60
2022/12/28 19:07:54;;;;;;;5.70;3.00;;;21.60;50.80;;;;;;212133;1300;23199;-60
2022/12/28 19:12:58;;;;;;;7.60;3.40;;;21.60;50.80;;;;;;212120;1305;24316;-59
2022/12/28 19:18:05;;;;;;;3.50;2.10;;;21.50;50.80;;;;;;211955;1302;24281;-60
2022/12/28 19:23:11;;;;;;;5.40;2.70;;;21.60;50.80;;;;;;212142;1303;25251;-60
2022/12/28 19:28:15;;;;;;;4.70;2.30;;;21.80;51.10;;;;;;212075;1296;24398;-61
2022/12/28 19:33:19;;;;;;;5.70;2.40;;;22.10;49.90;;;;;;211944;1303;23248;-59
2022/12/28 19:38:24;;;;;;;4.20;2.40;;;22.30;49.60;;;;;;212183;1316;24283;-60
2022/12/28 19:43:29;;;;;;;5.50;2.60;;;22.40;49.40;;;;;;212069;1297;22475;-59
2022/12/28 19:48:35;;;;;;;3.80;2.20;;;22.50;49.20;;;;;;212241;1309;22494;-60
2022/12/28 19:53:40;;;;;;;13.50;3.60;;;22.60;49.60;;;;;;211978;1299;22501;-57
2022/12/28 19:58:44;;;;;;;18.60;4.30;;;22.60;48.20;;;;;;211907;1312;22571;-59
2022/12/28 20:03:50;;;;;;;15.60;3.70;;;22.60;47.90;;;;;;212005;1300;24469;-60
2022/12/28 20:09:00;;;;;;;20.70;4.60;;;22.50;48.60;;;;;;211937;1303;25319;-60
2022/12/28 20:14:04;;;;;;;15.60;3.80;;;22.50;48.90;;;;;;212161;1296;22494;-61
2022/12/28 20:19:11;;;;;;;11.60;3.50;;;22.30;51.10;;;;;;212178;1303;22469;-60
2022/12/28 20:24:16;;;;;;;10.40;4.80;;;22.40;51.90;;;;;;212123;1300;24394;-59
2022/12/28 20:29:22;;;;;;;10.00;4.30;;;22.40;52.00;;;;;;212065;1293;25541;-59
2022/12/28 20:34:27;;;;;;;15.00;4.80;;;22.40;52.30;;;;;;212030;1307;24073;-60
2022/12/28 20:39:32;;;;;;;19.20;5.20;;;22.40;52.20;;;;;;211878;1311;24968;-60
2022/12/28 20:44:37;;;;;;;14.00;4.70;;;22.50;54.50;;;;;;212094;1314;22481;-60
2022/12/28 20:49:41;;;;;;;15.50;5.30;;;22.50;55.30;;;;;;212004;1296;22487;-60
2022/12/28 20:54:46;;;;;;;15.30;4.70;;;22.50;54.70;;;;;;212369;1302;22588;-57
2022/12/28 20:59:50;;;;;;;14.60;5.30;;;22.50;55.10;;;;;;212141;1302;24335;-59
2022/12/28 21:04:55;;;;;;;12.50;4.70;;;22.50;57.40;;;;;;212257;1303;22501;-60
2022/12/28 21:10:00;;;;;;;14.50;4.50;;;22.50;59.40;;;;;;212282;1308;25359;-59
2022/12/28 21:15:06;;;;;;;14.50;4.40;;;22.40;59.90;;;;;;212074;1308;22680;-60
2022/12/28 21:20:11;;;;;;;14.40;4.50;;;22.40;58.00;;;;;;212011;1299;22598;-59
2022/12/28 21:25:16;;;;;;;9.70;4.40;;;22.30;57.80;;;;;;212151;1313;25302;-59
2022/12/28 21:30:20;;;;;;;12.70;4.50;;;22.20;57.80;;;;;;212344;1298;22582;-59
2022/12/28 21:35:25;;;;;;;14.10;4.60;;;22.10;58.10;;;;;;212067;1302;24462;-59
2022/12/28 21:40:36;;;;;;;14.60;4.60;;;22.00;57.70;;;;;;211930;1301;23735;-59
2022/12/28 21:45:41;;;;;;;9.40;4.40;;;22.00;57.80;;;;;;212043;1299;22478;-58
2022/12/28 21:50:45;;;;;;;16.70;4.60;;;21.90;57.80;;;;;;212097;1298;22527;-58
2022/12/28 21:55:49;;;;;;;15.70;4.40;;;22.00;59.50;;;;;;211931;1302;22609;-59
2022/12/28 22:06:33;;;;;;;12.60;4.00;;;21.90;58.90;;;;;;211711;1309;22624;-58
2022/12/28 22:17:00;;;;;;;10.80;5.00;;;21.80;60.50;;;;;;212092;1303;22464;-59
2022/12/28 22:22:06;;;;;;;10.40;5.80;;;21.80;60.00;;;;;;212159;1314;22537;-59
2022/12/28 22:27:10;;;;;;;11.80;4.70;;;21.80;61.40;;;;;;211851;1300;22565;-59
2022/12/28 22:32:14;;;;;;;14.30;5.00;;;21.80;62.00;;;;;;212151;1309;22641;-58
2022/12/28 22:37:18;;;;;;;12.50;4.50;;;21.80;61.20;;;;;;212278;1303;22524;-58
2022/12/28 22:42:21;;;;;;;11.70;5.20;;;21.80;61.40;;;;;;212055;1309;25418;-57
2022/12/28 22:47:26;;;;;;;8.50;4.50;;;21.80;61.00;;;;;;211877;1303;22508;-58
2022/12/28 22:52:30;;;;;;;5.40;3.80;;;21.80;61.00;;;;;;211976;1302;22716;-58
2022/12/28 22:57:34;;;;;;;9.70;4.70;;;21.80;61.30;;;;;;212051;1309;22624;-58
2022/12/28 23:02:39;;;;;;;10.40;4.00;;;21.70;60.70;;;;;;211713;1300;22514;-58
2022/12/28 23:07:43;;;;;;;8.70;4.70;;;21.70;60.90;;;;;;211952;1299;24252;-57
2022/12/28 23:12:47;;;;;;;10.30;4.60;;;21.70;60.50;;;;;;212039;1303;22498;-58
2022/12/28 23:27:18;;;;;;;8.50;4.30;;;21.70;60.90;;;;;;212168;1290;22674;-58
2022/12/28 23:28:39;;;;;;;7.30;4.00;;;21.70;59.90;;;;;;212176;1302;25701;-55
2022/12/28 23:33:43;;;;;;;9.40;4.50;;;21.70;59.90;;;;;;212186;1301;22512;-58
2022/12/28 23:38:49;;;;;;;6.70;3.90;;;21.70;59.90;;;;;;211993;1295;24335;-58
2022/12/28 23:43:53;;;;;;;5.20;3.50;;;21.60;59.80;;;;;;212896;1309;22523;-58
2022/12/28 23:48:57;;;;;;;7.40;3.00;;;21.60;59.80;;;;;;211897;1309;22498;-58
2022/12/28 23:54:02;;;;;;;10.40;3.90;;;21.60;59.70;;;;;;211974;1308;22961;-58
2022/12/28 23:59:06;;;;;;;6.20;3.70;;;21.50;59.60;;;;;;212181;1299;24421;-59
